createdAt,value
2019-01-05T00:02:28.330Z,1.40
2019-01-05T00:05:36.770Z,1.70
2019-01-05T00:08:44.964Z,1.90
2019-01-05T00:14:41.699Z,2.00
2019-01-05T00:20:42.040Z,1.40
2019-01-05T00:24:09.474Z,1.20
2019-01-05T00:27:09.726Z,1.10
2019-01-05T00:33:36.763Z,1.50
2019-01-05T00:36:23.791Z,1.20
2019-01-05T00:45:25.531Z,1.00
2019-01-05T00:48:26.758Z,1.00
2019-01-05T00:51:28.212Z,1.00
2019-01-05T00:54:12.189Z,0.90
2019-01-05T00:57:41.051Z,1.20
2019-01-05T01:00:41.931Z,1.30
2019-01-05T01:03:42.191Z,1.10
2019-01-05T01:09:52.887Z,1.30
2019-01-05T01:13:01.122Z,1.30
2019-01-05T01:16:01.909Z,1.40
2019-01-05T01:22:01.111Z,1.20
2019-01-05T01:25:09.189Z,1.00
2019-01-05T01:34:19.377Z,1.50
2019-01-05T01:40:35.262Z,1.60
2019-01-05T01:43:36.191Z,1.70
2019-01-05T01:46:23.098Z,1.50
2019-01-05T01:49:31.175Z,1.40
2019-01-05T01:52:15.681Z,1.20
2019-01-05T01:55:23.903Z,0.70
2019-01-05T01:58:25.457Z,0.80
2019-01-05T02:01:33.635Z,0.80
2019-01-05T02:04:16.857Z,0.70
2019-01-05T02:13:32.140Z,0.80
2019-01-05T02:17:00.992Z,0.80
2019-01-05T02:20:47.580Z,0.80
2019-01-05T02:23:35.082Z,0.60
2019-01-05T02:27:03.950Z,0.70
2019-01-05T02:30:32.822Z,1.00
2019-01-05T02:33:17.773Z,1.30
2019-01-05T02:36:46.570Z,1.40
2019-01-05T02:40:15.386Z,1.10
2019-01-05T02:44:02.013Z,0.90
2019-01-05T02:47:33.515Z,0.80
2019-01-05T02:54:24.195Z,0.70
2019-01-05T02:58:10.786Z,0.50
2019-01-05T03:04:33.278Z,0.40
2019-01-05T03:07:41.610Z,0.20
2019-01-05T03:11:10.460Z,0.40
2019-01-05T03:14:39.597Z,0.30
2019-01-05T03:18:26.326Z,0.30
2019-01-05T03:22:12.915Z,0.20
2019-01-05T03:31:51.629Z,0.30
2019-01-05T03:35:20.398Z,0.20
2019-01-05T03:42:00.720Z,0.10
2019-01-05T03:45:29.640Z,0.10
2019-01-05T03:48:14.632Z,0.30
2019-01-05T03:55:17.671Z,0.20
2019-01-05T03:58:17.240Z,0.20
2019-01-05T04:02:03.824Z,0.20
2019-01-05T04:05:24.291Z,0.10
2019-01-05T04:09:10.875Z,0.10
2019-01-05T04:12:16.454Z,0.10
2019-01-05T04:15:45.247Z,0.10
2019-01-05T04:19:05.696Z,0.20
2019-01-05T04:22:34.496Z,0.50
2019-01-05T04:25:36.916Z,0.40
2019-01-05T04:32:15.014Z,0.30
2019-01-05T04:35:43.812Z,0.40
2019-01-05T04:38:49.264Z,0.20
2019-01-05T04:49:26.508Z,-0.10
2019-01-05T04:52:55.317Z,-0.20
2019-01-05T04:56:24.174Z,-0.30
2019-01-05T04:59:52.982Z,-0.30
2019-01-05T05:02:55.361Z,-0.40
2019-01-05T05:06:41.946Z,-0.50
2019-01-05T05:09:44.416Z,-0.50
2019-01-05T05:16:43.394Z,-0.20
2019-01-05T05:20:12.191Z,-0.10
2019-01-05T05:22:57.154Z,-0.20
2019-01-05T05:29:48.459Z,-0.40
2019-01-05T05:32:54.023Z,-0.40
2019-01-05T05:42:53.296Z,-0.40
2019-01-05T05:46:22.440Z,0.00
2019-01-05T05:53:59.575Z,0.00
2019-01-05T05:57:28.715Z,-0.40
2019-01-05T06:01:15.444Z,-0.60
2019-01-05T06:04:20.860Z,-0.70
2019-01-05T06:07:28.876Z,-0.50
2019-01-05T06:10:57.685Z,-0.50
2019-01-05T06:18:00.759Z,-0.50
2019-01-05T06:21:05.857Z,-0.40
2019-01-05T06:24:52.449Z,-0.40
2019-01-05T06:27:57.809Z,-0.60
2019-01-05T06:31:06.334Z,-0.50
2019-01-05T06:34:35.199Z,-0.60
2019-01-05T06:37:40.529Z,-0.70
2019-01-05T06:41:09.370Z,-0.70
2019-01-05T06:44:55.961Z,-0.60
2019-01-05T06:48:25.103Z,-0.70
2019-01-05T06:52:11.706Z,-0.90
2019-01-05T06:55:40.516Z,-0.80
2019-01-05T06:59:09.321Z,-0.50
2019-01-05T07:02:55.912Z,-0.30
2019-01-05T07:06:07.372Z,-0.20
2019-01-05T07:13:15.907Z,-0.70
2019-01-05T07:16:36.489Z,-0.70
2019-01-05T07:19:57.304Z,-0.50
2019-01-05T07:23:03.583Z,-0.70
2019-01-05T07:29:28.484Z,-0.60
2019-01-05T07:36:39.990Z,-0.70
2019-01-05T07:40:08.790Z,-0.80
2019-01-05T07:43:17.110Z,-0.90
2019-01-05T07:46:46.305Z,-0.90
2019-01-05T07:53:39.387Z,-0.40
2019-01-05T07:57:25.993Z,-0.40
2019-01-05T08:00:47.213Z,-0.50
2019-01-05T08:04:16.385Z,-0.30
2019-01-05T08:07:25.249Z,-0.40
2019-01-05T08:14:21.820Z,-0.50
2019-01-05T08:18:08.743Z,-0.40
2019-01-05T08:21:55.343Z,-0.50
2019-01-05T08:25:24.305Z,-0.50
2019-01-05T08:29:10.905Z,-0.40
2019-01-05T08:32:19.524Z,-0.30
2019-01-05T08:35:48.469Z,-0.30
2019-01-05T08:38:56.822Z,-0.10
2019-01-05T08:42:25.653Z,-0.10
2019-01-05T08:45:28.422Z,0.10
2019-01-05T08:51:56.644Z,0.20
2019-01-05T08:58:49.687Z,0.10
2019-01-05T09:02:18.592Z,0.20
2019-01-05T09:06:05.180Z,0.40
2019-01-05T09:09:10.042Z,0.40
2019-01-05T09:16:03.733Z,0.90
2019-01-05T09:19:32.523Z,1.00
2019-01-05T09:22:37.159Z,1.20
2019-01-05T09:26:23.765Z,1.30
2019-01-05T09:29:25.076Z,1.30
2019-01-05T09:32:45.664Z,1.40
2019-01-05T09:36:11.398Z,1.50
2019-01-05T09:39:40.222Z,1.50
2019-01-05T09:42:25.313Z,1.60
2019-01-05T09:46:11.925Z,1.70
2019-01-05T09:49:11.800Z,1.90
2019-01-05T09:52:58.507Z,2.00
2019-01-05T09:56:03.948Z,2.20
2019-01-05T09:59:50.532Z,2.20
2019-01-05T10:03:11.315Z,2.10
2019-01-05T10:06:40.459Z,2.30
2019-01-05T10:09:48.835Z,2.40
2019-01-05T10:13:20.592Z,2.50
2019-01-05T10:16:29.435Z,2.70
2019-01-05T10:20:16.695Z,2.80
2019-01-05T10:23:25.553Z,2.90
2019-01-05T10:27:12.243Z,3.30
2019-01-05T10:37:40.541Z,4.20
2019-01-05T10:43:54.300Z,5.20
2019-01-05T10:47:25.403Z,5.50
2019-01-05T10:50:28.336Z,5.60
2019-01-05T10:57:52.777Z,6.30
2019-01-05T11:08:05.973Z,6.30
2019-01-05T11:11:52.591Z,6.40
2019-01-05T11:14:55.279Z,6.10
2019-01-05T11:18:24.076Z,6.40
2019-01-05T11:21:26.716Z,6.80
2019-01-05T11:25:13.299Z,6.90
2019-01-05T11:28:22.226Z,7.00
2019-01-05T11:32:10.531Z,6.80
2019-01-05T11:35:15.463Z,6.80
2019-01-05T11:38:36.110Z,6.50
2019-01-05T11:41:38.998Z,6.40
2019-01-05T11:45:08.130Z,6.20
2019-01-05T11:48:10.690Z,6.20
2019-01-05T11:51:16.619Z,6.00
2019-01-05T11:55:03.218Z,6.00
2019-01-05T11:58:08.574Z,6.80
2019-01-05T12:01:55.205Z,6.20
2019-01-05T12:11:47.167Z,6.80
2019-01-05T12:15:33.745Z,6.80
2019-01-05T12:18:42.642Z,6.30
2019-01-05T12:22:11.437Z,6.70
2019-01-05T12:25:14.046Z,6.90
2019-01-05T12:29:00.678Z,7.30
2019-01-05T12:32:00.631Z,7.50
2019-01-05T12:35:29.426Z,7.70
2019-01-05T12:38:37.567Z,7.80
2019-01-05T12:41:42.438Z,7.90
2019-01-05T12:44:29.917Z,7.20
2019-01-05T12:47:58.715Z,7.70
2019-01-05T12:54:40.757Z,7.30
2019-01-05T12:58:01.334Z,7.00
2019-01-05T13:01:21.984Z,7.50
2019-01-05T13:04:50.820Z,7.60
2019-01-05T13:11:50.768Z,8.10
2019-01-05T13:14:56.482Z,8.10
2019-01-05T13:18:25.287Z,7.70
2019-01-05T13:25:31.802Z,7.70
2019-01-05T13:28:34.155Z,7.90
2019-01-05T13:35:03.392Z,8.00
2019-01-05T13:38:05.569Z,8.20
2019-01-05T13:41:34.782Z,8.10
2019-01-05T13:45:21.372Z,8.20
2019-01-05T13:49:07.969Z,8.70
2019-01-05T13:52:36.778Z,9.00
2019-01-05T13:59:01.239Z,8.80
2019-01-05T14:02:03.058Z,8.60
2019-01-05T14:08:10.946Z,8.70
2019-01-05T14:11:12.236Z,8.60
2019-01-05T14:14:13.118Z,8.90
2019-01-05T14:17:06.358Z,9.00
2019-01-05T14:19:52.202Z,9.10
2019-01-05T14:23:00.385Z,9.20
2019-01-05T14:26:08.517Z,9.20
2019-01-05T14:29:16.620Z,8.80
2019-01-05T14:32:24.718Z,8.70
2019-01-05T14:35:32.916Z,8.80
2019-01-05T14:38:41.059Z,8.60
2019-01-05T14:41:49.162Z,8.90
2019-01-05T14:44:35.469Z,8.90
2019-01-05T14:47:43.576Z,8.90
2019-01-05T14:50:44.370Z,8.70
2019-01-05T14:53:27.810Z,8.50
2019-01-05T14:56:36.095Z,8.50
2019-01-05T14:59:37.403Z,8.50
2019-01-05T15:02:20.899Z,8.40
2019-01-05T15:05:29.008Z,8.60
2019-01-05T15:08:37.082Z,8.40
2019-01-05T15:11:45.248Z,8.00
2019-01-05T15:14:28.696Z,7.80
2019-01-05T15:17:38.515Z,7.60
2019-01-05T15:20:25.322Z,7.60
2019-01-05T15:23:33.459Z,7.50
2019-01-05T15:26:16.821Z,7.50
2019-01-05T15:29:24.903Z,7.30
2019-01-05T15:35:28.241Z,7.00
2019-01-05T15:38:29.652Z,6.90
2019-01-05T15:41:37.781Z,7.00
2019-01-05T15:44:45.913Z,6.80
2019-01-05T15:47:54.012Z,6.80
2019-01-05T15:50:55.023Z,6.70
2019-01-05T15:54:03.103Z,6.70
2019-01-05T15:57:03.689Z,6.80
2019-01-05T16:00:11.767Z,6.50
2019-01-05T16:15:11.821Z,6.20
2019-01-05T16:18:19.855Z,6.10
2019-01-05T16:21:20.849Z,6.00
2019-01-05T16:24:29.066Z,6.00
2019-01-05T16:27:12.532Z,5.90
2019-01-05T16:30:20.803Z,5.70
2019-01-05T16:33:21.832Z,5.60
2019-01-05T16:42:26.160Z,5.50
2019-01-05T16:45:27.156Z,5.40
2019-01-05T16:48:10.566Z,5.30
2019-01-05T16:51:18.644Z,5.20
2019-01-05T16:54:01.776Z,5.20
2019-01-05T16:57:09.913Z,5.20
2019-01-05T16:59:56.606Z,5.10
2019-01-05T17:03:04.691Z,5.00
2019-01-05T17:06:05.637Z,5.00
2019-01-05T17:09:13.836Z,5.00
2019-01-05T17:12:14.722Z,5.00
2019-01-05T17:18:29.096Z,4.90
2019-01-05T17:21:37.193Z,4.80
2019-01-05T17:24:45.274Z,4.70
2019-01-05T17:27:45.044Z,4.70
2019-01-05T17:33:52.806Z,4.70
2019-01-05T17:36:36.338Z,4.60
2019-01-05T17:39:44.626Z,4.60
2019-01-05T17:48:41.716Z,4.50
2019-01-05T17:51:49.783Z,4.50
2019-01-05T17:54:50.531Z,4.50
2019-01-05T17:57:58.810Z,4.50
2019-01-05T18:00:42.289Z,4.60
2019-01-05T18:03:50.429Z,4.60
2019-01-05T18:06:36.740Z,4.60
2019-01-05T18:09:44.870Z,4.50
2019-01-05T18:12:45.719Z,4.40
2019-01-05T18:15:53.777Z,4.50
2019-01-05T18:18:37.175Z,4.40
2019-01-05T18:24:47.915Z,4.30
2019-01-05T18:27:56.020Z,4.30
2019-01-05T18:33:57.478Z,4.30
2019-01-05T18:40:00.358Z,4.20
2019-01-05T18:43:01.663Z,4.10
2019-01-05T18:46:02.571Z,4.20
2019-01-05T18:55:09.299Z,4.10
2019-01-05T18:58:17.565Z,4.10
2019-01-05T19:01:02.126Z,4.10
2019-01-05T19:04:10.356Z,4.00
2019-01-05T19:07:11.286Z,4.00
2019-01-05T19:10:19.613Z,4.00
2019-01-05T19:13:20.392Z,3.80
2019-01-05T19:16:28.503Z,3.80
2019-01-05T19:19:36.550Z,3.90
2019-01-05T19:22:44.645Z,3.80
2019-01-05T19:25:52.705Z,3.80
2019-01-05T19:29:00.819Z,3.60
2019-01-05T19:32:08.975Z,3.70
2019-01-05T19:35:17.179Z,3.70
2019-01-05T19:38:25.334Z,3.80
2019-01-05T19:44:22.374Z,3.80
2019-01-05T19:47:30.439Z,3.80
2019-01-05T19:50:13.922Z,3.90
2019-01-05T19:53:22.098Z,3.80
2019-01-05T19:56:22.774Z,3.80
2019-01-05T19:59:30.870Z,3.80
2019-01-05T20:02:31.995Z,3.70
2019-01-05T20:05:40.204Z,3.70
2019-01-05T20:08:23.466Z,3.70
2019-01-05T20:11:31.640Z,3.80
2019-01-05T20:14:19.255Z,3.80
2019-01-05T20:17:27.440Z,3.80
2019-01-05T20:20:36.785Z,3.70
2019-01-05T20:23:38.075Z,3.70
2019-01-05T20:26:46.343Z,3.70
2019-01-05T20:29:46.442Z,3.70
2019-01-05T20:32:54.548Z,3.70
2019-01-05T20:35:38.383Z,3.50
2019-01-05T20:38:46.513Z,3.60
2019-01-05T20:41:47.038Z,3.60
2019-01-05T20:44:55.167Z,3.50
2019-01-05T20:56:53.493Z,3.40
2019-01-05T20:59:53.641Z,3.30
2019-01-05T21:05:54.196Z,3.30
2019-01-05T21:08:41.883Z,3.20
2019-01-05T21:11:42.410Z,3.20
2019-01-05T21:14:50.639Z,3.20
2019-01-05T21:17:51.554Z,3.10
2019-01-05T21:20:59.757Z,3.10
2019-01-05T21:23:43.188Z,3.20
2019-01-05T21:29:51.786Z,3.20
2019-01-05T21:32:59.886Z,3.20
2019-01-05T21:35:46.637Z,3.30
2019-01-05T21:38:54.743Z,3.20
2019-01-05T21:41:55.681Z,3.30
2019-01-05T21:45:03.803Z,3.20
2019-01-05T21:48:04.740Z,3.20
2019-01-05T21:50:48.192Z,3.10
2019-01-05T21:59:47.687Z,2.90
2019-01-05T22:09:02.754Z,2.80
2019-01-05T22:12:10.957Z,3.20
2019-01-05T22:15:12.008Z,3.10
2019-01-05T22:17:57.997Z,2.90
2019-01-05T22:21:06.096Z,2.80
2019-01-05T22:23:52.584Z,2.80
2019-01-05T22:27:00.672Z,2.70
2019-01-05T22:29:46.818Z,2.50
2019-01-05T22:32:55.056Z,2.50
2019-01-05T22:39:10.935Z,2.50
2019-01-05T22:42:11.647Z,2.30
2019-01-05T22:45:13.002Z,2.20
2019-01-05T22:48:13.483Z,2.10
2019-01-05T22:54:28.114Z,2.10
2019-01-05T22:57:14.781Z,2.10
2019-01-05T22:59:58.690Z,2.10
2019-01-05T23:03:06.773Z,2.00
2019-01-05T23:06:07.611Z,1.90
2019-01-05T23:09:15.856Z,1.90
2019-01-05T23:12:24.010Z,2.10
2019-01-05T23:15:07.594Z,2.00
2019-01-05T23:18:15.746Z,2.10
2019-01-05T23:27:18.896Z,2.10
2019-01-05T23:30:27.069Z,2.00
2019-01-05T23:33:35.185Z,1.90
2019-01-05T23:36:36.803Z,1.90
2019-01-05T23:39:45.167Z,1.90
2019-01-05T23:45:48.969Z,1.90
2019-01-05T23:48:32.386Z,2.00
2019-01-05T23:51:40.472Z,1.90
2019-01-05T23:54:41.378Z,1.80
2019-01-05T23:57:42.596Z,1.70
